Time;durP1;ratioP1;P1;durP2;ratioP2;P2;SDS_P1;SDS_P2;PMS_P1;PMS_P2;Temp;Humidity;BMP_temperature;BMP_pressure;BME280_temperature;BME280_humidity;BME280_pressure;Samples;Min_cycle;Max_cycle;Signal;HPM_P1;HPM_P2
2021/08/06 00:01:56;;;;;;;18.25;11.40;;;24.60;69.60;;;;;;5054113;28;20029;-79
2021/08/06 00:04:22;;;;;;;16.23;11.57;;;24.50;69.70;;;;;;5054588;28;20118;-75
2021/08/06 00:06:48;;;;;;;14.20;11.20;;;24.50;69.90;;;;;;5054302;28;20017;-75
2021/08/06 00:09:14;;;;;;;16.00;11.75;;;24.50;70.00;;;;;;5054145;28;20033;-75
2021/08/06 00:11:40;;;;;;;20.00;12.13;;;24.40;70.20;;;;;;5054199;28;20099;-75
2021/08/06 00:14:06;;;;;;;20.52;12.10;;;24.40;70.50;;;;;;5054686;28;20032;-75
2021/08/06 00:16:33;;;;;;;17.77;11.88;;;24.30;70.70;;;;;;5052903;28;20029;-75
2021/08/06 00:18:59;;;;;;;16.73;11.48;;;24.30;70.90;;;;;;5054516;28;20028;-77
2021/08/06 00:21:25;;;;;;;14.85;11.50;;;24.20;71.10;;;;;;5052954;28;20025;-75
2021/08/06 00:23:50;;;;;;;15.13;11.45;;;24.20;71.30;;;;;;5053957;28;20033;-75
2021/08/06 00:26:17;;;;;;;14.50;12.27;;;24.20;71.50;;;;;;5053809;28;20485;-76
2021/08/06 00:28:43;;;;;;;17.83;12.07;;;24.10;71.60;;;;;;5053989;28;20053;-75
2021/08/06 00:31:09;;;;;;;22.83;14.55;;;24.10;71.90;;;;;;5053316;28;20029;-75
2021/08/06 00:33:34;;;;;;;21.98;14.05;;;24.10;72.00;;;;;;5053940;28;20036;-75
2021/08/06 00:36:00;;;;;;;25.13;12.43;;;24.00;72.10;;;;;;5053791;28;20356;-76
2021/08/06 00:38:26;;;;;;;21.75;13.63;;;24.00;72.30;;;;;;5054058;28;20437;-75
2021/08/06 00:40:52;;;;;;;24.90;13.32;;;24.00;72.40;;;;;;5053673;28;20100;-75
2021/08/06 00:43:18;;;;;;;19.70;12.40;;;24.00;72.50;;;;;;5052337;28;20021;-76
2021/08/06 00:45:45;;;;;;;19.90;12.40;;;24.00;72.60;;;;;;5054264;28;20021;-75
2021/08/06 00:48:10;;;;;;;18.45;12.63;;;24.00;72.70;;;;;;5053832;28;20033;-75
2021/08/06 00:50:37;;;;;;;22.15;13.40;;;23.90;72.80;;;;;;5053759;28;20036;-75
2021/08/06 00:53:03;;;;;;;18.88;13.70;;;23.90;73.00;;;;;;5053979;28;20077;-75
2021/08/06 00:55:29;;;;;;;17.85;12.85;;;23.90;73.10;;;;;;5054101;28;20057;-75
2021/08/06 00:57:55;;;;;;;16.70;13.10;;;23.90;73.20;;;;;;5054250;28;20063;-74
2021/08/06 01:00:20;;;;;;;19.17;14.18;;;23.80;73.30;;;;;;5053832;28;20422;-74
2021/08/06 01:03:04;;;;;;;18.17;14.75;;;23.80;73.50;;;;;;5053792;28;20445;-75
2021/08/06 01:05:52;;;;;;;21.45;14.50;;;23.80;73.70;;;;;;5054293;28;20131;-74
2021/08/06 01:08:23;;;;;;;19.48;14.35;;;23.80;73.90;;;;;;5046348;28;20044;-75
2021/08/06 01:11:05;;;;;;;19.17;14.68;;;23.70;74.00;;;;;;5052353;28;20051;-75
2021/08/06 01:13:47;;;;;;;22.27;15.10;;;23.70;74.20;;;;;;5053704;28;20057;-75
2021/08/06 01:16:13;;;;;;;22.70;15.00;;;23.60;74.30;;;;;;5053653;28;20033;-75
2021/08/06 01:18:49;;;;;;;19.88;15.82;;;23.60;74.50;;;;;;5053485;28;20021;-75
2021/08/06 01:21:18;;;;;;;20.15;15.63;;;23.60;74.80;;;;;;5053403;28;20036;-74
2021/08/06 01:23:45;;;;;;;18.63;14.88;;;23.60;74.90;;;;;;5053241;28;20032;-74
2021/08/06 01:26:19;;;;;;;19.48;13.93;;;23.60;75.10;;;;;;5069023;28;20033;-74
2021/08/06 01:28:49;;;;;;;20.42;14.70;;;23.60;75.30;;;;;;5053944;28;20033;-74
2021/08/06 01:31:25;;;;;;;21.83;16.20;;;23.50;75.40;;;;;;5053399;28;20028;-74
2021/08/06 01:33:51;;;;;;;22.40;15.63;;;23.50;75.50;;;;;;5053270;28;20380;-76
2021/08/06 01:36:17;;;;;;;19.40;14.73;;;23.50;75.60;;;;;;5056089;28;20037;-75
2021/08/06 01:38:43;;;;;;;19.42;14.77;;;23.40;75.80;;;;;;5057438;28;20159;-75
2021/08/06 01:41:27;;;;;;;20.05;15.25;;;23.40;75.90;;;;;;5056655;28;20033;-75
2021/08/06 01:44:19;;;;;;;20.70;15.35;;;23.40;76.10;;;;;;5057139;28;20471;-75
2021/08/06 01:46:48;;;;;;;19.15;14.20;;;23.40;76.20;;;;;;5056859;28;20025;-75
2021/08/06 01:49:17;;;;;;;20.10;15.75;;;23.30;76.40;;;;;;5055635;28;20116;-74
2021/08/06 01:51:47;;;;;;;21.58;15.32;;;23.40;76.70;;;;;;5056174;28;20110;-75
2021/08/06 01:54:15;;;;;;;20.65;14.48;;;23.40;76.80;;;;;;5055407;28;20036;-76
2021/08/06 01:56:42;;;;;;;18.98;15.48;;;23.50;76.90;;;;;;5056505;28;20029;-75
2021/08/06 01:59:08;;;;;;;19.52;14.95;;;23.50;76.80;;;;;;5056287;28;20029;-75
2021/08/06 02:01:34;;;;;;;19.83;14.48;;;23.50;76.70;;;;;;5056494;28;20036;-75
2021/08/06 02:04:00;;;;;;;21.42;15.15;;;23.60;77.20;;;;;;5056692;28;20029;-76
2021/08/06 02:06:27;;;;;;;18.92;14.32;;;23.50;77.20;;;;;;5056465;28;20035;-74
2021/08/06 02:08:53;;;;;;;18.10;15.18;;;23.50;77.40;;;;;;5056373;28;20060;-74
2021/08/06 02:11:19;;;;;;;20.77;15.70;;;23.50;77.60;;;;;;5055894;28;20354;-76
2021/08/06 02:13:45;;;;;;;18.40;13.82;;;23.50;77.90;;;;;;5056575;28;20033;-76
2021/08/06 02:16:11;;;;;;;19.50;15.35;;;23.40;78.00;;;;;;5055334;28;20041;-74
2021/08/06 02:18:37;;;;;;;20.08;15.82;;;23.40;78.30;;;;;;5056487;28;20464;-74
2021/08/06 02:21:14;;;;;;;20.00;15.75;;;23.40;78.40;;;;;;5056388;28;20025;-74
2021/08/06 02:23:44;;;;;;;19.67;15.13;;;23.40;78.60;;;;;;5056023;28;20040;-75
2021/08/06 02:26:12;;;;;;;23.13;14.73;;;23.30;78.70;;;;;;5055300;28;20384;-75
2021/08/06 02:28:39;;;;;;;23.25;15.60;;;23.30;78.80;;;;;;5055254;28;20021;-75
2021/08/06 02:31:05;;;;;;;21.77;15.70;;;23.30;78.90;;;;;;5056719;28;20029;-75
2021/08/06 02:33:32;;;;;;;21.45;16.60;;;23.30;79.00;;;;;;5056457;28;20178;-75
2021/08/06 02:35:58;;;;;;;28.23;19.30;;;23.30;79.80;;;;;;5056725;28;20376;-75
2021/08/06 02:38:24;;;;;;;24.48;19.20;;;23.30;79.30;;;;;;5054910;28;20021;-74
2021/08/06 02:40:51;;;;;;;24.58;18.75;;;23.20;79.30;;;;;;5056064;28;20107;-75
2021/08/06 02:43:17;;;;;;;24.30;18.27;;;23.30;79.40;;;;;;5055920;28;20492;-75
2021/08/06 02:45:47;;;;;;;22.80;18.35;;;23.20;79.50;;;;;;5056040;28;20021;-75
2021/08/06 02:48:13;;;;;;;24.10;17.55;;;23.20;79.70;;;;;;5055818;28;20362;-76
2021/08/06 02:50:38;;;;;;;23.85;17.08;;;23.20;79.80;;;;;;5055896;28;20048;-75
2021/08/06 02:53:04;;;;;;;23.75;16.38;;;23.20;80.00;;;;;;5055967;28;20087;-75
2021/08/06 02:55:30;;;;;;;25.02;16.63;;;23.20;80.20;;;;;;5054442;28;20643;-75
2021/08/06 02:57:55;;;;;;;24.85;16.70;;;23.20;80.30;;;;;;5054825;28;20033;-75
2021/08/06 03:00:21;;;;;;;21.67;16.77;;;23.20;80.40;;;;;;5054248;28;20055;-74
2021/08/06 03:02:47;;;;;;;28.92;16.90;;;23.20;80.50;;;;;;5055331;28;20446;-75
2021/08/06 03:05:13;;;;;;;21.55;16.33;;;23.20;80.60;;;;;;5055572;28;20036;-76
2021/08/06 03:07:38;;;;;;;25.30;16.73;;;23.20;80.70;;;;;;5055297;28;20075;-76
2021/08/06 03:10:06;;;;;;;18.90;15.15;;;23.20;80.80;;;;;;5054821;28;20032;-75
2021/08/06 03:12:32;;;;;;;20.08;16.17;;;23.20;80.90;;;;;;5055062;28;20076;-77
2021/08/06 03:14:57;;;;;;;19.92;15.65;;;23.30;81.00;;;;;;5055341;28;20049;-75
2021/08/06 03:17:23;;;;;;;23.15;16.17;;;23.30;81.00;;;;;;5055617;28;20082;-75
2021/08/06 03:19:50;;;;;;;19.70;15.68;;;23.30;81.10;;;;;;5055091;28;20107;-75
2021/08/06 03:22:16;;;;;;;24.23;16.55;;;23.30;81.10;;;;;;5055456;28;20074;-76
2021/08/06 03:24:42;;;;;;;21.48;16.75;;;23.30;81.20;;;;;;5055153;28;20028;-75
2021/08/06 03:27:07;;;;;;;21.02;16.27;;;23.40;81.20;;;;;;5055252;28;20025;-76
2021/08/06 03:29:33;;;;;;;22.45;17.42;;;23.40;81.20;;;;;;5055151;28;20407;-75
2021/08/06 03:31:59;;;;;;;20.67;15.88;;;23.40;81.20;;;;;;5053481;28;20029;-75
2021/08/06 03:34:24;;;;;;;21.60;17.48;;;23.40;81.30;;;;;;5055240;28;20029;-75
2021/08/06 03:36:50;;;;;;;19.40;16.73;;;23.40;81.20;;;;;;5053702;28;20037;-75
2021/08/06 03:39:16;;;;;;;24.25;17.10;;;23.50;81.30;;;;;;5054879;28;20032;-75
2021/08/06 03:41:42;;;;;;;19.88;16.13;;;23.40;81.20;;;;;;5054803;28;20070;-74
2021/08/06 03:44:07;;;;;;;19.95;16.30;;;23.50;81.30;;;;;;5054811;28;20104;-75
2021/08/06 03:46:33;;;;;;;20.00;15.20;;;23.40;81.30;;;;;;5055226;28;20032;-75
2021/08/06 03:48:59;;;;;;;20.10;16.15;;;23.40;81.40;;;;;;5054331;28;20492;-75
2021/08/06 03:51:25;;;;;;;21.98;16.23;;;23.40;81.60;;;;;;5054630;28;20029;-76
2021/08/06 03:53:50;;;;;;;23.65;16.92;;;23.30;81.60;;;;;;5053175;28;20063;-76
2021/08/06 03:56:16;;;;;;;19.48;16.40;;;23.30;81.70;;;;;;5053378;28;20025;-76
2021/08/06 03:58:42;;;;;;;24.08;18.73;;;23.30;81.80;;;;;;5054079;28;20460;-75
2021/08/06 04:01:08;;;;;;;28.08;19.15;;;23.30;81.90;;;;;;5053226;28;20025;-75
2021/08/06 04:03:33;;;;;;;23.75;20.15;;;23.30;81.90;;;;;;5054429;28;20108;-75
2021/08/06 04:05:59;;;;;;;25.55;20.23;;;23.30;81.80;;;;;;5053623;28;20103;-75
2021/08/06 04:08:25;;;;;;;27.38;20.02;;;23.30;81.80;;;;;;5054432;28;20453;-77
2021/08/06 04:10:50;;;;;;;22.23;18.10;;;23.30;81.70;;;;;;5054757;28;20036;-75
2021/08/06 04:13:16;;;;;;;17.27;14.98;;;23.30;81.60;;;;;;5054199;28;20079;-76
2021/08/06 04:15:42;;;;;;;22.17;15.50;;;23.40;81.20;;;;;;5054841;28;20029;-75
2021/08/06 04:18:08;;;;;;;21.13;15.50;;;23.40;81.10;;;;;;5053176;28;20021;-75
2021/08/06 04:20:33;;;;;;;49.53;22.95;;;23.40;81.00;;;;;;5054266;28;20036;-75
2021/08/06 04:22:59;;;;;;;46.47;23.23;;;23.40;81.00;;;;;;5054807;28;20032;-75
2021/08/06 04:25:25;;;;;;;43.55;22.80;;;23.50;81.10;;;;;;5052798;28;20392;-76
2021/08/06 04:27:51;;;;;;;31.05;20.08;;;23.50;81.10;;;;;;5054442;28;20361;-76
2021/08/06 04:30:16;;;;;;;33.30;20.45;;;23.60;81.60;;;;;;5054147;28;20040;-76
2021/08/06 04:32:42;;;;;;;25.52;17.75;;;23.60;80.90;;;;;;5053644;28;20365;-76
2021/08/06 04:35:08;;;;;;;21.50;16.08;;;23.70;80.80;;;;;;5053990;28;20060;-76
2021/08/06 04:37:34;;;;;;;17.60;14.50;;;23.70;80.50;;;;;;5054164;28;20053;-76
2021/08/06 04:40:00;;;;;;;16.80;13.23;;;23.70;80.30;;;;;;5053791;28;20111;-76
2021/08/06 04:42:26;;;;;;;18.35;15.68;;;23.80;80.00;;;;;;5052375;28;20032;-75
2021/08/06 04:44:51;;;;;;;18.80;13.98;;;23.80;79.70;;;;;;5053607;28;20032;-75
2021/08/06 04:47:17;;;;;;;18.08;13.95;;;23.90;79.50;;;;;;5054345;28;20025;-75
2021/08/06 04:49:43;;;;;;;22.70;15.95;;;24.00;79.40;;;;;;5053733;28;20453;-76
2021/08/06 04:52:08;;;;;;;20.05;15.27;;;24.00;79.40;;;;;;5052668;28;20041;-76
2021/08/06 04:54:34;;;;;;;22.95;14.93;;;24.10;79.80;;;;;;5052985;28;20441;-76
2021/08/06 04:57:00;;;;;;;19.30;15.10;;;24.00;80.00;;;;;;5053662;28;20435;-76
2021/08/06 04:59:26;;;;;;;16.65;13.05;;;24.10;80.20;;;;;;5053438;28;20071;-75
2021/08/06 05:01:51;;;;;;;22.20;14.23;;;24.10;80.30;;;;;;5053862;28;20109;-75
2021/08/06 05:04:17;;;;;;;21.25;13.32;;;24.20;80.20;;;;;;5053193;28;20025;-77
2021/08/06 05:06:43;;;;;;;18.15;13.65;;;24.20;80.10;;;;;;5053022;28;20033;-75
2021/08/06 05:09:09;;;;;;;20.15;13.80;;;24.30;80.00;;;;;;5055537;28;20029;-77
2021/08/06 05:11:35;;;;;;;19.08;14.32;;;24.40;80.10;;;;;;5072815;28;20048;-76
2021/08/06 05:14:01;;;;;;;21.08;14.68;;;24.50;80.00;;;;;;5057620;28;20091;-76
2021/08/06 05:16:27;;;;;;;24.33;15.45;;;24.60;79.90;;;;;;5057591;28;20033;-80
2021/08/06 05:18:52;;;;;;;20.60;13.98;;;24.70;79.60;;;;;;5057566;28;20021;-76
2021/08/06 05:21:18;;;;;;;23.52;17.20;;;24.70;79.20;;;;;;5057491;28;20021;-78
2021/08/06 05:23:44;;;;;;;21.35;15.88;;;24.70;79.00;;;;;;5056665;28;20151;-76
2021/08/06 05:26:10;;;;;;;22.80;15.60;;;24.80;78.90;;;;;;5057102;28;20029;-76
2021/08/06 05:28:35;;;;;;;22.38;15.68;;;24.90;78.90;;;;;;5055950;28;20025;-76
2021/08/06 05:31:01;;;;;;;22.23;15.35;;;25.00;78.70;;;;;;5056995;28;20106;-76
2021/08/06 05:33:27;;;;;;;22.75;15.57;;;25.00;78.50;;;;;;5057454;28;20125;-76
2021/08/06 05:35:52;;;;;;;23.13;15.55;;;25.00;78.30;;;;;;5055894;28;20372;-77
2021/08/06 05:38:18;;;;;;;18.75;13.93;;;25.10;78.00;;;;;;5057140;28;20036;-81
2021/08/06 05:40:44;;;;;;;19.85;14.63;;;25.20;77.50;;;;;;5056822;28;20025;-76
2021/08/06 05:43:09;;;;;;;24.60;14.68;;;25.30;77.00;;;;;;5056571;28;20052;-75
2021/08/06 05:45:35;;;;;;;20.40;14.23;;;25.40;76.60;;;;;;5056636;28;20096;-75
2021/08/06 05:48:01;;;;;;;17.75;14.10;;;25.50;76.20;;;;;;5056687;28;20108;-76
2021/08/06 05:50:28;;;;;;;18.75;13.70;;;25.60;75.90;;;;;;5056612;28;20029;-76
2021/08/06 05:52:54;;;;;;;19.52;13.85;;;25.70;75.50;;;;;;5055303;28;20059;-76
2021/08/06 05:55:20;;;;;;;23.95;13.55;;;25.90;75.10;;;;;;5055440;28;20116;-76
2021/08/06 05:57:46;;;;;;;27.98;13.65;;;26.00;74.70;;;;;;5056689;28;20516;-75
2021/08/06 06:00:14;;;;;;;16.60;12.90;;;26.10;74.20;;;;;;5056874;28;20064;-75
2021/08/06 06:02:40;;;;;;;14.30;11.95;;;26.20;73.70;;;;;;5056855;28;20476;-76
2021/08/06 06:05:06;;;;;;;16.05;12.23;;;26.30;73.20;;;;;;5056596;28;20068;-76
2021/08/06 06:07:40;;;;;;;16.23;11.55;;;26.30;73.00;;;;;;5056430;28;20029;-75
2021/08/06 06:10:06;;;;;;;;;;;26.40;72.60;;;;;;5039750;28;20021;-77
2021/08/06 06:12:32;;;;;;;15.02;11.93;;;26.40;72.70;;;;;;5056865;28;19966;-76
2021/08/06 06:14:58;;;;;;;12.82;10.98;;;26.40;72.20;;;;;;5056255;28;20021;-77
2021/08/06 06:17:24;;;;;;;13.00;11.43;;;26.40;72.20;;;;;;5055657;28;20044;-76
2021/08/06 06:19:51;;;;;;;15.02;11.75;;;26.40;72.10;;;;;;5055738;28;20487;-76
2021/08/06 06:22:17;;;;;;;14.18;11.77;;;26.40;72.00;;;;;;5056312;28;20033;-76
2021/08/06 06:24:42;;;;;;;18.88;12.98;;;26.40;72.00;;;;;;5055838;28;20032;-76
2021/08/06 06:27:09;;;;;;;15.88;11.60;;;26.50;72.10;;;;;;5056064;28;20021;-75
2021/08/06 06:29:35;;;;;;;45.30;24.08;;;26.50;72.10;;;;;;5056119;28;20067;-79
2021/08/06 06:32:01;;;;;;;44.05;22.67;;;26.50;71.90;;;;;;5054693;28;20052;-76
2021/08/06 06:34:26;;;;;;;33.78;18.52;;;26.50;71.70;;;;;;5055875;28;20025;-75
2021/08/06 06:36:52;;;;;;;26.80;15.88;;;26.50;71.70;;;;;;5055767;28;20025;-75
2021/08/06 06:39:18;;;;;;;30.83;15.55;;;26.50;71.60;;;;;;5055955;28;20068;-76
2021/08/06 06:41:43;;;;;;;15.93;12.30;;;26.50;71.50;;;;;;5055889;28;20025;-76
2021/08/06 06:44:09;;;;;;;18.27;11.88;;;26.50;71.50;;;;;;5055090;28;20029;-75
2021/08/06 06:46:35;;;;;;;17.50;10.82;;;26.50;71.60;;;;;;5054467;28;20028;-76
2021/08/06 06:49:00;;;;;;;15.13;10.40;;;26.50;71.40;;;;;;5055796;28;20061;-76
2021/08/06 06:51:26;;;;;;;15.57;9.55;;;26.50;71.20;;;;;;5055994;28;20052;-76
2021/08/06 06:53:52;;;;;;;13.63;11.75;;;26.60;71.20;;;;;;5055934;28;20056;-75
2021/08/06 06:56:18;;;;;;;21.67;15.95;;;26.70;70.90;;;;;;5054505;28;20091;-77
2021/08/06 06:58:43;;;;;;;17.92;12.93;;;26.80;70.90;;;;;;5055572;28;20032;-76
2021/08/06 07:01:09;;;;;;;18.35;12.90;;;26.80;71.10;;;;;;5055512;28;20534;-76
2021/08/06 07:03:35;;;;;;;20.48;12.77;;;26.70;71.30;;;;;;5055353;28;20025;-75
2021/08/06 07:06:00;;;;;;;17.85;15.68;;;26.50;71.80;;;;;;5055621;28;20025;-76
2021/08/06 07:08:26;;;;;;;20.40;15.05;;;26.30;72.30;;;;;;5055668;28;20445;-79
2021/08/06 07:10:52;;;;;;;19.08;14.50;;;26.20;72.50;;;;;;5055717;28;20052;-76
2021/08/06 07:13:17;;;;;;;14.20;10.45;;;26.10;72.50;;;;;;5070970;28;20037;-76
2021/08/06 07:15:44;;;;;;;14.48;9.38;;;26.00;72.40;;;;;;5055120;28;20077;-77
2021/08/06 07:18:11;;;;;;;12.55;9.40;;;26.00;72.10;;;;;;5054895;28;20029;-78
2021/08/06 07:20:37;;;;;;;13.05;8.65;;;26.00;72.00;;;;;;5054222;28;20029;-76
2021/08/06 07:23:03;;;;;;;11.77;8.07;;;26.00;71.80;;;;;;5054806;28;20378;-76
2021/08/06 07:25:29;;;;;;;11.23;7.93;;;26.00;71.70;;;;;;5053886;28;20029;-77
2021/08/06 07:27:55;;;;;;;9.98;8.35;;;25.90;71.50;;;;;;5055050;28;20491;-77
2021/08/06 07:30:21;;;;;;;10.80;8.75;;;25.80;71.50;;;;;;5054537;28;20035;-76
2021/08/06 07:32:47;;;;;;;13.57;8.77;;;25.70;71.80;;;;;;5053545;28;20420;-76
2021/08/06 07:35:13;;;;;;;11.52;8.18;;;25.50;72.10;;;;;;5054945;28;20021;-75
2021/08/06 07:37:41;;;;;;;12.48;8.18;;;25.40;72.30;;;;;;5055397;28;20075;-76
2021/08/06 07:40:07;;;;;;;12.77;8.60;;;25.30;72.80;;;;;;5054972;28;20027;-76
2021/08/06 07:42:33;;;;;;;12.82;7.78;;;25.20;73.50;;;;;;5054870;28;20068;-76
2021/08/06 07:44:59;;;;;;;10.77;7.65;;;25.10;73.40;;;;;;5054440;28;20056;-76
2021/08/06 07:47:25;;;;;;;11.15;7.90;;;25.00;73.70;;;;;;5054813;28;20074;-76
2021/08/06 07:49:50;;;;;;;13.00;8.40;;;25.00;73.80;;;;;;5054583;28;20388;-77
2021/08/06 07:52:16;;;;;;;26.15;11.68;;;25.00;73.60;;;;;;5054222;28;20147;-76
2021/08/06 07:54:42;;;;;;;32.53;12.95;;;25.00;73.40;;;;;;5054330;28;20052;-75
2021/08/06 07:57:08;;;;;;;33.15;13.20;;;25.10;73.00;;;;;;5054609;28;20551;-76
2021/08/06 07:59:34;;;;;;;28.38;12.77;;;25.30;72.70;;;;;;5054331;28;20061;-77
2021/08/06 08:02:00;;;;;;;15.43;9.48;;;25.40;72.50;;;;;;5054599;28;20039;-77
2021/08/06 08:04:26;;;;;;;12.02;8.90;;;25.40;72.30;;;;;;5054156;28;20028;-77
2021/08/06 08:06:52;;;;;;;17.90;8.10;;;25.40;72.00;;;;;;5054552;28;20079;-73
2021/08/06 08:09:17;;;;;;;11.25;7.50;;;25.40;71.90;;;;;;5054310;28;20025;-74
2021/08/06 08:11:43;;;;;;;10.48;6.75;;;25.40;71.60;;;;;;5052926;28;20029;-75
2021/08/06 08:14:09;;;;;;;11.43;7.35;;;25.40;71.50;;;;;;5052482;28;20037;-74
2021/08/06 08:16:34;;;;;;;11.75;8.00;;;25.40;71.20;;;;;;5054327;28;20021;-73
2021/08/06 08:19:00;;;;;;;9.85;7.13;;;25.40;71.00;;;;;;5054623;28;20461;-73
2021/08/06 08:21:26;;;;;;;12.73;7.38;;;25.30;71.00;;;;;;5054101;28;20025;-74
2021/08/06 08:23:52;;;;;;;11.45;8.02;;;25.40;70.90;;;;;;5054212;28;20025;-75
2021/08/06 08:26:20;;;;;;;18.30;8.73;;;25.40;70.70;;;;;;5052647;28;20078;-76
2021/08/06 08:28:45;;;;;;;25.40;12.23;;;25.60;70.70;;;;;;5053956;28;20060;-75
2021/08/06 08:31:11;;;;;;;35.70;18.58;;;25.80;70.40;;;;;;5053831;28;20052;-75
2021/08/06 08:33:37;;;;;;;41.67;22.20;;;26.00;69.50;;;;;;5054082;28;20108;-75
2021/08/06 08:36:04;;;;;;;34.05;16.20;;;26.20;68.10;;;;;;5053815;28;20025;-75
2021/08/06 08:38:31;;;;;;;31.05;16.17;;;26.50;66.60;;;;;;5054061;28;20055;-74
2021/08/06 08:40:58;;;;;;;38.35;16.52;;;26.80;66.00;;;;;;5053762;28;20032;-74
2021/08/06 08:43:24;;;;;;;50.97;21.02;;;27.10;65.10;;;;;;5053383;28;20059;-75
2021/08/06 08:45:51;;;;;;;47.05;20.30;;;27.50;64.00;;;;;;5053636;28;20039;-75
2021/08/06 08:48:19;;;;;;;46.85;19.27;;;27.80;63.10;;;;;;5052307;28;20064;-76
2021/08/06 08:50:45;;;;;;;27.42;14.02;;;28.20;62.70;;;;;;5053576;28;20422;-75
2021/08/06 08:53:10;;;;;;;29.65;14.57;;;28.70;61.60;;;;;;5053474;28;20099;-74
2021/08/06 08:55:38;;;;;;;27.13;14.43;;;29.10;60.50;;;;;;5053509;28;20045;-75
2021/08/06 08:58:05;;;;;;;26.85;13.73;;;29.40;59.60;;;;;;5053647;28;20037;-76
2021/08/06 09:00:31;;;;;;;28.92;13.93;;;29.60;58.60;;;;;;5053289;28;20029;-77
2021/08/06 09:02:57;;;;;;;20.42;12.25;;;29.90;58.10;;;;;;5053517;28;20040;-76
2021/08/06 09:05:28;;;;;;;22.73;12.27;;;30.20;57.10;;;;;;5053217;28;20029;-75
2021/08/06 09:07:55;;;;;;;21.92;10.45;;;30.50;56.30;;;;;;5053136;28;20496;-74
2021/08/06 09:10:28;;;;;;;20.52;10.75;;;30.70;55.70;;;;;;5052177;28;20079;-75
2021/08/06 09:13:00;;;;;;;16.42;9.18;;;30.90;54.80;;;;;;5052148;28;20029;-76
2021/08/06 09:15:53;;;;;;;15.27;9.30;;;30.90;54.10;;;;;;5053467;28;20084;-76
2021/08/06 09:18:39;;;;;;;19.13;10.38;;;30.90;53.80;;;;;;5053874;28;20428;-74
2021/08/06 09:21:17;;;;;;;20.75;9.75;;;30.70;54.20;;;;;;5052194;28;20052;-74
2021/08/06 09:23:59;;;;;;;16.30;8.10;;;30.60;53.90;;;;;;5053401;28;20029;-75
2021/08/06 09:26:28;;;;;;;16.00;8.82;;;30.50;53.20;;;;;;5052773;28;20116;-74
2021/08/06 09:29:17;;;;;;;19.48;7.53;;;30.50;52.50;;;;;;5053254;28;20069;-74
2021/08/06 09:32:00;;;;;;;19.10;7.68;;;30.40;51.70;;;;;;5052820;28;20469;-75
2021/08/06 09:34:27;;;;;;;28.55;9.27;;;30.20;51.50;;;;;;5053308;28;20045;-76
2021/08/06 09:37:07;;;;;;;19.63;7.78;;;30.20;52.00;;;;;;5051729;28;20032;-73
2021/08/06 09:39:47;;;;;;;22.60;8.25;;;30.20;51.80;;;;;;5053519;28;20025;-75
2021/08/06 09:42:32;;;;;;;22.65;5.82;;;30.30;51.70;;;;;;5052847;28;20021;-75
2021/08/06 09:45:06;;;;;;;38.40;15.10;;;30.50;52.00;;;;;;5053805;28;20029;-73
2021/08/06 09:47:34;;;;;;;15.98;5.63;;;30.70;51.30;;;;;;5053089;28;20025;-76
2021/08/06 09:50:03;;;;;;;13.38;4.30;;;31.00;51.20;;;;;;5052826;28;20052;-75
2021/08/06 09:52:29;;;;;;;27.65;5.80;;;31.20;50.80;;;;;;5051465;28;20400;-75
2021/08/06 09:54:55;;;;;;;10.07;4.38;;;31.30;50.70;;;;;;5053365;28;20410;-73
2021/08/06 09:57:21;;;;;;;13.07;3.88;;;31.50;50.40;;;;;;5057263;28;20025;-76
2021/08/06 09:59:55;;;;;;;14.85;4.75;;;31.40;50.50;;;;;;5055657;28;20025;-74
2021/08/06 10:02:32;;;;;;;11.35;4.07;;;31.40;50.20;;;;;;5056533;28;20040;-75
2021/08/06 10:05:04;;;;;;;6.97;3.88;;;31.40;50.20;;;;;;5055899;28;20027;-74
2021/08/06 10:07:33;;;;;;;8.90;4.10;;;31.40;50.20;;;;;;5056518;28;20021;-75
2021/08/06 10:09:59;;;;;;;5.60;3.55;;;31.40;50.40;;;;;;5056179;28;20025;-76
2021/08/06 10:12:25;;;;;;;6.65;3.67;;;31.40;50.30;;;;;;5056417;28;20123;-75
2021/08/06 10:14:52;;;;;;;5.63;3.33;;;31.30;50.00;;;;;;5056438;28;20025;-74
2021/08/06 10:17:18;;;;;;;7.10;3.50;;;31.10;49.60;;;;;;5055993;28;20036;-74
2021/08/06 10:19:44;;;;;;;7.78;3.50;;;31.10;49.20;;;;;;5055255;28;20083;-76
2021/08/06 10:22:10;;;;;;;6.45;3.35;;;31.10;48.90;;;;;;5056819;28;20230;-73
2021/08/06 10:24:38;;;;;;;8.98;3.58;;;31.20;49.00;;;;;;5056367;28;20075;-75
2021/08/06 10:27:04;;;;;;;9.70;4.05;;;31.30;49.10;;;;;;5055897;28;20047;-74
2021/08/06 10:29:30;;;;;;;7.32;3.60;;;31.90;49.10;;;;;;5055777;28;20107;-74
2021/08/06 10:32:10;;;;;;;5.78;3.40;;;32.80;48.70;;;;;;5055109;28;20071;-73
2021/08/06 10:35:06;;;;;;;8.07;3.70;;;33.80;47.50;;;;;;5055956;28;20033;-73
2021/08/06 10:37:54;;;;;;;9.20;3.70;;;34.70;47.00;;;;;;5056378;28;20028;-74
2021/08/06 10:40:35;;;;;;;6.70;3.70;;;35.40;45.80;;;;;;5055885;28;20036;-74
2021/08/06 10:43:10;;;;;;;9.93;3.38;;;36.00;45.10;;;;;;5055708;28;20021;-75
2021/08/06 10:45:48;;;;;;;8.75;3.92;;;36.30;44.70;;;;;;5056071;28;20025;-74
2021/08/06 10:48:29;;;;;;;13.10;4.85;;;36.70;44.60;;;;;;5054839;28;20372;-74
2021/08/06 10:51:17;;;;;;;7.70;4.45;;;37.60;45.10;;;;;;5056094;28;20052;-74
2021/08/06 10:54:08;;;;;;;6.82;4.00;;;38.50;45.40;;;;;;5056211;28;20049;-73
2021/08/06 10:56:37;;;;;;;9.93;4.40;;;39.50;44.10;;;;;;5055613;28;20454;-74
2021/08/06 10:59:13;;;;;;;6.30;4.10;;;40.20;43.30;;;;;;5055276;28;20070;-74
2021/08/06 11:01:48;;;;;;;8.00;3.90;;;40.90;42.00;;;;;;5054228;28;20021;-73
2021/08/06 11:04:14;;;;;;;6.70;4.00;;;41.30;40.90;;;;;;5054246;28;20080;-73
2021/08/06 11:06:48;;;;;;;6.20;4.13;;;41.50;40.50;;;;;;5054924;28;20432;-75
2021/08/06 11:09:26;;;;;;;15.55;4.57;;;41.60;40.10;;;;;;5055569;28;20482;-74
2021/08/06 11:11:59;;;;;;;10.98;4.18;;;41.80;40.00;;;;;;5054370;28;20435;-74
2021/08/06 11:14:39;;;;;;;10.15;4.88;;;42.20;39.80;;;;;;5055632;28;20061;-74
2021/08/06 11:17:09;;;;;;;47.25;6.38;;;42.50;39.70;;;;;;5055104;28;20124;-73
2021/08/06 11:19:38;;;;;;;10.68;4.97;;;42.40;39.60;;;;;;5055458;28;20075;-74
2021/08/06 11:22:32;;;;;;;8.85;5.40;;;41.30;39.90;;;;;;5055156;28;20021;-74
2021/08/06 11:25:01;;;;;;;9.63;5.32;;;40.00;41.10;;;;;;5055727;28;20056;-74
2021/08/06 11:27:34;;;;;;;16.65;5.57;;;38.80;42.40;;;;;;5055021;28;20036;-74
2021/08/06 11:30:01;;;;;;;10.77;5.85;;;37.90;44.00;;;;;;5054670;28;20033;-73
2021/08/06 11:32:27;;;;;;;7.43;5.00;;;37.10;45.20;;;;;;5053872;28;20037;-74
2021/08/06 11:35:02;;;;;;;12.63;5.85;;;36.50;44.80;;;;;;5054953;28;20025;-73
2021/08/06 11:37:48;;;;;;;9.85;6.10;;;35.90;45.60;;;;;;5054664;28;20412;-73
2021/08/06 11:40:15;;;;;;;16.23;6.90;;;35.20;46.80;;;;;;5055148;28;20057;-75
2021/08/06 11:42:41;;;;;;;13.13;7.07;;;34.50;48.30;;;;;;5054424;28;20033;-75
2021/08/06 11:45:09;;;;;;;9.93;7.80;;;33.90;49.90;;;;;;5053577;28;20384;-76
2021/08/06 11:47:39;;;;;;;10.73;8.70;;;33.30;52.00;;;;;;5054289;28;20391;-74
2021/08/06 11:50:07;;;;;;;19.45;8.40;;;32.80;53.40;;;;;;5054579;28;20028;-75
2021/08/06 11:52:50;;;;;;;11.25;7.95;;;32.30;54.40;;;;;;5054633;28;20041;-75
2021/08/06 11:55:18;;;;;;;12.82;8.57;;;32.00;55.40;;;;;;5053135;28;20120;-75
2021/08/06 11:57:55;;;;;;;10.48;8.48;;;31.80;56.30;;;;;;5054225;28;20418;-75
2021/08/06 12:00:29;;;;;;;18.30;8.90;;;31.70;57.20;;;;;;5054373;28;20365;-77
2021/08/06 12:03:15;;;;;;;15.35;9.07;;;31.60;58.40;;;;;;5054969;28;20033;-75
2021/08/06 12:05:51;;;;;;;20.73;9.07;;;31.60;58.60;;;;;;5055109;28;20040;-77
2021/08/06 12:08:32;;;;;;;12.23;8.98;;;31.50;58.70;;;;;;5054300;28;20108;-75
2021/08/06 12:11:04;;;;;;;12.75;9.35;;;31.40;59.40;;;;;;5054864;28;20028;-76
2021/08/06 12:13:30;;;;;;;14.00;9.88;;;31.30;60.50;;;;;;5054701;28;20044;-75
2021/08/06 12:16:02;;;;;;;13.95;7.20;;;31.00;61.10;;;;;;5054061;28;20029;-75
2021/08/06 12:18:29;;;;;;;11.95;6.90;;;30.60;59.10;;;;;;5053743;28;20052;-74
2021/08/06 12:20:58;;;;;;;9.35;5.68;;;30.20;59.60;;;;;;5054288;28;20047;-74
2021/08/06 12:23:24;;;;;;;12.25;5.78;;;29.70;60.30;;;;;;5054009;28;20029;-76
2021/08/06 12:26:05;;;;;;;8.57;6.18;;;29.10;61.50;;;;;;5054679;28;20035;-77
2021/08/06 12:28:32;;;;;;;8.95;5.90;;;28.50;63.60;;;;;;5053948;28;20033;-75
2021/08/06 12:31:26;;;;;;;9.48;6.22;;;28.00;65.00;;;;;;5037114;28;20025;-75
2021/08/06 12:34:12;;;;;;;9.68;6.40;;;27.60;66.30;;;;;;5053942;28;20037;-77
2021/08/06 12:36:56;;;;;;;14.00;7.53;;;27.00;68.00;;;;;;5053599;28;20037;-75
2021/08/06 12:39:22;;;;;;;14.05;8.80;;;26.40;70.20;;;;;;5054133;28;20127;-76